createdAt,value
2024-03-02T00:01:21.016Z,7.59
2024-03-02T00:06:22.716Z,7.60
2024-03-02T00:11:24.334Z,7.60
2024-03-02T00:16:31.957Z,7.61
2024-03-02T00:21:33.777Z,7.61
2024-03-02T00:26:35.447Z,7.61
2024-03-02T00:31:36.946Z,7.61
2024-03-02T00:36:38.414Z,7.59
2024-03-02T00:41:43.107Z,7.56
2024-03-02T00:46:44.704Z,7.57
2024-03-02T00:51:51.264Z,7.56
2024-03-02T00:56:55.711Z,7.52
2024-03-02T01:01:57.680Z,7.51
2024-03-02T01:06:59.281Z,7.50
2024-03-02T01:12:01.081Z,7.46
2024-03-02T01:17:04.961Z,7.41
2024-03-02T01:22:06.512Z,7.33
2024-03-02T01:27:08.391Z,7.27
2024-03-02T01:32:09.917Z,7.23
2024-03-02T01:37:11.541Z,7.20
2024-03-02T01:42:13.479Z,7.18
2024-03-02T01:47:15.332Z,7.15
2024-03-02T01:52:16.810Z,7.10
2024-03-02T01:57:18.882Z,7.05
2024-03-02T02:02:20.719Z,7.05
2024-03-02T02:07:22.508Z,7.04
2024-03-02T02:12:24.283Z,7.01
2024-03-02T02:17:25.966Z,7.01
2024-03-02T02:22:27.773Z,6.98
2024-03-02T02:27:29.623Z,6.93
2024-03-02T02:32:31.510Z,6.90
2024-03-02T02:37:33.120Z,6.87
2024-03-02T02:42:34.653Z,6.85
2024-03-02T02:47:36.192Z,6.80
2024-03-02T02:52:41.147Z,6.76
2024-03-02T02:57:43.874Z,6.75
2024-03-02T03:02:49.578Z,6.74
2024-03-02T03:07:51.778Z,6.71
2024-03-02T03:12:53.736Z,6.71
2024-03-02T03:17:55.500Z,6.71
2024-03-02T03:23:00.679Z,6.70
2024-03-02T03:28:02.418Z,6.71
2024-03-02T03:33:06.659Z,6.70
2024-03-02T03:38:08.455Z,6.68
2024-03-02T03:43:10.062Z,6.68
2024-03-02T03:48:12.049Z,6.65
2024-03-02T03:53:15.056Z,6.64
2024-03-02T03:58:20.044Z,6.62
2024-03-02T04:03:23.678Z,6.62
2024-03-02T04:08:25.668Z,6.61
2024-03-02T04:13:27.214Z,6.61
2024-03-02T04:18:28.798Z,6.59
2024-03-02T04:23:30.526Z,6.58
2024-03-02T04:28:32.054Z,6.56
2024-03-02T04:33:33.726Z,6.56
2024-03-02T04:38:35.112Z,6.53
2024-03-02T04:43:36.514Z,6.53
2024-03-02T04:48:38.078Z,6.55
2024-03-02T04:53:39.680Z,6.55
2024-03-02T04:58:41.059Z,6.54
2024-03-02T05:03:42.519Z,6.53
2024-03-02T05:08:45.366Z,6.51
2024-03-02T05:13:47.076Z,6.49
2024-03-02T05:18:49.206Z,6.44
2024-03-02T05:23:50.710Z,6.41
2024-03-02T05:28:52.486Z,6.38
2024-03-02T05:33:57.739Z,6.33
2024-03-02T05:39:00.090Z,6.27
2024-03-02T05:44:02.128Z,6.22
2024-03-02T05:49:04.349Z,6.21
2024-03-02T05:54:06.406Z,6.22
2024-03-02T05:59:14.292Z,6.19
2024-03-02T06:04:16.168Z,6.18
2024-03-02T06:09:18.645Z,6.15
2024-03-02T06:14:20.291Z,6.15
2024-03-02T06:19:22.270Z,6.15
2024-03-02T06:24:23.908Z,6.16
2024-03-02T06:29:25.533Z,6.19
2024-03-02T06:34:27.207Z,6.21
2024-03-02T06:39:28.840Z,6.23
2024-03-02T06:44:30.549Z,6.23
2024-03-02T06:49:32.382Z,6.24
2024-03-02T06:54:35.253Z,6.27
2024-03-02T06:59:36.818Z,6.28
2024-03-02T07:04:58.350Z,6.31
2024-03-02T07:09:59.793Z,6.35
2024-03-02T07:15:04.828Z,6.40
2024-03-02T07:20:07.283Z,6.47
2024-03-02T07:25:08.805Z,6.55
2024-03-02T07:30:11.906Z,6.67
2024-03-02T07:35:14.569Z,6.82
2024-03-02T07:40:36.085Z,7.02
2024-03-02T07:45:37.702Z,7.18
2024-03-02T07:50:39.632Z,7.26
2024-03-02T07:55:41.658Z,7.24
2024-03-02T08:00:43.598Z,7.15
2024-03-02T08:05:45.347Z,7.06
2024-03-02T08:10:47.471Z,6.94
2024-03-02T08:15:49.216Z,6.79
2024-03-02T08:20:50.949Z,6.71
2024-03-02T08:25:52.676Z,6.69
2024-03-02T08:30:54.196Z,6.68
2024-03-02T08:35:57.244Z,6.63
2024-03-02T08:41:18.577Z,6.57
2024-03-02T08:46:20.307Z,6.62
2024-03-02T08:51:21.884Z,6.70
2024-03-02T08:56:24.222Z,6.77
2024-03-02T09:01:26.096Z,6.86
2024-03-02T09:06:27.938Z,6.99
2024-03-02T09:11:29.696Z,7.06
2024-03-02T09:16:51.646Z,7.14
2024-03-02T09:22:13.513Z,7.24
2024-03-02T09:27:35.324Z,7.25
2024-03-02T09:33:17.533Z,7.26
2024-03-02T09:38:19.888Z,7.24
2024-03-02T09:43:22.051Z,7.23
2024-03-02T09:48:43.923Z,7.27
2024-03-02T09:53:46.093Z,7.31
2024-03-02T09:58:47.928Z,7.34
2024-03-02T10:03:52.008Z,7.43
2024-03-02T10:08:58.519Z,7.47
2024-03-02T10:14:11.655Z,7.53
2024-03-02T10:19:24.727Z,7.53
2024-03-02T10:24:26.300Z,7.58
2024-03-02T10:29:30.345Z,7.61
2024-03-02T10:34:31.923Z,7.64
2024-03-02T10:39:36.235Z,7.78
2024-03-02T10:44:38.678Z,8.03
2024-03-02T10:49:43.799Z,8.25
2024-03-02T10:54:45.542Z,8.45
2024-03-02T10:59:53.468Z,8.59
2024-03-02T11:04:55.718Z,8.70
2024-03-02T11:10:08.984Z,8.81
2024-03-02T11:15:13.645Z,8.86
2024-03-02T11:20:15.949Z,8.86
2024-03-02T11:25:28.451Z,8.91
2024-03-02T11:30:32.802Z,8.92
2024-03-02T11:35:48.290Z,8.91
2024-03-02T11:40:50.065Z,8.93
2024-03-02T11:45:58.999Z,8.99
2024-03-02T11:51:01.318Z,9.05
2024-03-02T11:56:22.806Z,9.11
2024-03-02T12:01:24.607Z,9.07
2024-03-02T12:06:27.021Z,9.02
2024-03-02T12:11:28.811Z,9.02
2024-03-02T12:16:30.275Z,9.02
2024-03-02T12:21:52.213Z,9.00
2024-03-02T12:26:54.399Z,9.00
2024-03-02T12:31:56.031Z,9.02
2024-03-02T12:36:57.557Z,9.01
2024-03-02T12:41:59.187Z,8.98
2024-03-02T12:47:20.591Z,8.91
2024-03-02T12:52:23.005Z,8.85
2024-03-02T12:57:31.014Z,8.84
2024-03-02T13:02:35.682Z,8.82
2024-03-02T13:07:38.788Z,8.83
2024-03-02T13:12:40.560Z,8.81
2024-03-02T13:17:42.727Z,8.81
2024-03-02T13:22:47.663Z,8.85
2024-03-02T13:27:49.640Z,8.88
2024-03-02T13:32:51.605Z,8.91
2024-03-02T13:37:53.329Z,8.92
2024-03-02T13:42:55.324Z,8.89
2024-03-02T13:47:57.242Z,8.90
2024-03-02T13:53:19.111Z,8.88
2024-03-02T13:58:21.481Z,8.85
2024-03-02T14:03:24.184Z,8.85
2024-03-02T14:08:26.996Z,8.89
2024-03-02T14:13:29.740Z,8.89
2024-03-02T14:18:32.060Z,8.77
2024-03-02T14:23:53.999Z,8.62
2024-03-02T14:29:15.511Z,8.46
2024-03-02T14:34:38.489Z,8.36
2024-03-02T14:40:01.984Z,8.29
2024-03-02T14:45:23.920Z,8.23
2024-03-02T14:50:26.386Z,8.12
2024-03-02T14:55:47.935Z,8.01
2024-03-02T15:01:09.528Z,7.94
2024-03-02T15:06:11.084Z,7.92
2024-03-02T15:11:13.071Z,7.86
2024-03-02T15:16:14.744Z,7.77
2024-03-02T15:21:16.104Z,7.67
2024-03-02T15:26:17.996Z,7.59
2024-03-02T15:31:19.533Z,7.48
2024-03-02T15:36:21.206Z,7.36
2024-03-02T15:41:22.717Z,7.30
2024-03-02T15:46:24.094Z,7.24
2024-03-02T15:51:25.715Z,7.22
2024-03-02T15:56:27.125Z,7.20
2024-03-02T16:01:30.795Z,7.18
2024-03-02T16:06:32.705Z,7.16
2024-03-02T16:11:36.581Z,7.14
2024-03-02T16:16:38.338Z,7.07
2024-03-02T16:21:39.846Z,7.02
2024-03-02T16:26:41.351Z,6.96
2024-03-02T16:31:42.830Z,6.89
2024-03-02T16:36:44.270Z,6.84
2024-03-02T16:41:47.182Z,6.79
2024-03-02T16:46:49.799Z,6.75
2024-03-02T16:51:51.300Z,6.73
2024-03-02T16:56:52.777Z,6.75
2024-03-02T17:01:54.960Z,6.77
2024-03-02T17:06:56.713Z,6.81
2024-03-02T17:11:58.431Z,6.84
2024-03-02T17:17:00.140Z,6.87
2024-03-02T17:22:01.639Z,6.89
2024-03-02T17:27:03.376Z,6.92
2024-03-02T17:32:04.866Z,6.92
2024-03-02T17:37:26.328Z,6.95
2024-03-02T17:42:29.603Z,7.01
2024-03-02T17:47:31.869Z,7.06
2024-03-02T17:52:33.299Z,7.08
2024-03-02T17:57:34.762Z,7.10
2024-03-02T18:02:36.686Z,7.11
2024-03-02T18:07:38.995Z,7.11
2024-03-02T18:12:40.667Z,7.11
2024-03-02T18:17:42.126Z,7.10
2024-03-02T18:42:43.354Z,7.01
2024-03-02T18:47:45.163Z,6.98
2024-03-02T18:52:47.705Z,6.96
2024-03-02T18:57:49.109Z,6.93
2024-03-02T19:02:50.536Z,6.90
2024-03-02T19:07:52.103Z,6.84
2024-03-02T19:12:53.540Z,6.78
2024-03-02T19:17:55.001Z,6.73
2024-03-02T19:22:56.867Z,6.71
2024-03-02T19:28:18.247Z,6.70
2024-03-02T19:33:39.596Z,6.73
2024-03-02T19:39:01.030Z,6.77
2024-03-02T19:44:22.521Z,6.84
2024-03-02T19:49:44.894Z,6.90
2024-03-02T19:55:06.526Z,6.94
2024-03-02T20:00:29.197Z,6.97
2024-03-02T20:05:50.836Z,6.94
2024-03-02T20:11:15.567Z,6.90
2024-03-02T20:16:37.102Z,6.84
2024-03-02T20:21:38.610Z,6.79
2024-03-02T20:26:40.312Z,6.74
2024-03-02T20:31:42.240Z,6.70
2024-03-02T20:36:45.331Z,6.67
2024-03-02T20:41:48.147Z,6.64
2024-03-02T20:46:49.632Z,6.62
2024-03-02T20:51:51.142Z,6.60
2024-03-02T20:56:53.029Z,6.60
2024-03-02T21:01:54.551Z,6.62
2024-03-02T21:06:56.430Z,6.63
2024-03-02T21:11:58.070Z,6.63
2024-03-02T21:16:59.546Z,6.62
2024-03-02T21:22:01.794Z,6.61
2024-03-02T21:27:03.721Z,6.59
2024-03-02T21:32:05.912Z,6.58
2024-03-02T21:37:07.304Z,6.58
2024-03-02T21:42:09.205Z,6.60
2024-03-02T21:47:10.603Z,6.61
2024-03-02T21:52:12.240Z,6.62
2024-03-02T21:57:20.144Z,6.62
2024-03-02T22:02:21.692Z,6.60
2024-03-02T22:07:23.186Z,6.63
2024-03-02T22:12:24.573Z,6.65
2024-03-02T22:17:28.496Z,6.66
2024-03-02T22:22:30.112Z,6.67
2024-03-02T22:27:33.601Z,6.68
2024-03-02T22:32:35.450Z,6.69
2024-03-02T22:37:37.094Z,6.68
2024-03-02T22:42:38.598Z,6.69
2024-03-02T22:47:40.095Z,6.68
2024-03-02T22:52:41.474Z,6.69
2024-03-02T22:57:43.030Z,6.70
2024-03-02T23:02:44.686Z,6.70
2024-03-02T23:07:46.280Z,6.70
2024-03-02T23:12:47.934Z,6.70
2024-03-02T23:17:49.434Z,6.69
2024-03-02T23:22:51.145Z,6.67
2024-03-02T23:27:52.683Z,6.66
2024-03-02T23:32:54.731Z,6.64
2024-03-02T23:37:56.358Z,6.62
2024-03-02T23:42:57.877Z,6.62
2024-03-02T23:47:59.391Z,6.61
2024-03-02T23:53:00.872Z,6.61
2024-03-02T23:58:02.887Z,6.59
